createdAt,value
2022-08-11T00:01:14.998Z,2.20
2022-08-11T00:03:51.380Z,2.67
2022-08-11T00:06:27.091Z,2.22
2022-08-11T00:08:56.888Z,5.18
2022-08-11T00:11:35.339Z,2.13
2022-08-11T00:14:05.226Z,2.22
2022-08-11T00:16:34.925Z,1.85
2022-08-11T00:19:05.423Z,2.10
2022-08-11T00:22:04.191Z,4.03
2022-08-11T00:24:34.981Z,3.58
2022-08-11T00:27:33.662Z,4.55
2022-08-11T00:30:02.422Z,4.00
2022-08-11T00:32:32.758Z,3.72
2022-08-11T00:35:55.338Z,4.43
2022-08-11T00:37:55.509Z,3.03
2022-08-11T00:40:29.534Z,3.17
2022-08-11T00:43:10.572Z,4.28
2022-08-11T00:45:44.064Z,2.97
2022-08-11T00:48:27.945Z,2.70
2022-08-11T00:51:11.215Z,4.22
2022-08-11T00:53:48.133Z,6.25
2022-08-11T00:59:59.122Z,7.03
2022-08-11T01:03:05.012Z,8.85
2022-08-11T01:06:09.379Z,5.65
2022-08-11T01:08:59.727Z,5.53
2022-08-11T01:11:56.435Z,4.32
2022-08-11T01:15:14.165Z,5.57
2022-08-11T01:18:15.867Z,5.15
2022-08-11T01:21:15.935Z,4.57
2022-08-11T01:24:32.664Z,3.13
2022-08-11T01:27:27.871Z,3.22
2022-08-11T01:30:42.741Z,2.13
2022-08-11T01:33:44.382Z,5.03
2022-08-11T01:36:56.986Z,3.80
2022-08-11T01:40:02.942Z,3.78
2022-08-11T01:43:33.715Z,2.85
2022-08-11T01:46:08.961Z,5.38
2022-08-11T01:48:43.716Z,4.25
2022-08-11T01:51:47.342Z,4.05
2022-08-11T01:54:25.985Z,3.22
2022-08-11T01:57:14.116Z,3.05
2022-08-11T01:59:49.496Z,2.80
2022-08-11T02:02:50.230Z,3.58
2022-08-11T02:05:56.459Z,2.42
2022-08-11T02:08:44.248Z,1.90
2022-08-11T02:11:35.845Z,1.65
2022-08-11T02:14:29.371Z,2.67
2022-08-11T02:17:10.725Z,2.67
2022-08-11T02:20:07.619Z,2.17
2022-08-11T02:23:01.477Z,1.50
2022-08-11T02:25:35.933Z,2.13
2022-08-11T02:28:11.957Z,4.40
2022-08-11T02:31:14.646Z,2.80
2022-08-11T02:34:06.387Z,3.35
2022-08-11T02:36:44.322Z,3.08
2022-08-11T02:39:16.382Z,4.28
2022-08-11T02:42:32.695Z,2.92
2022-08-11T02:45:17.739Z,5.20
2022-08-11T02:48:09.434Z,2.60
2022-08-11T02:50:44.084Z,2.65
2022-08-11T02:53:21.692Z,3.25
2022-08-11T02:56:03.150Z,2.45
2022-08-11T02:58:41.878Z,3.78
2022-08-11T03:01:21.314Z,2.13
2022-08-11T03:03:56.592Z,3.15
2022-08-11T03:06:37.700Z,2.13
2022-08-11T03:09:11.380Z,1.83
2022-08-11T03:12:08.036Z,3.60
2022-08-11T03:15:05.747Z,2.55
2022-08-11T03:17:42.689Z,3.33
2022-08-11T03:20:23.638Z,2.58
2022-08-11T03:23:03.071Z,2.45
2022-08-11T03:25:35.782Z,3.22
2022-08-11T03:28:16.496Z,2.72
2022-08-11T03:30:54.000Z,4.07
2022-08-11T03:33:46.219Z,4.57
2022-08-11T03:36:24.304Z,3.97
2022-08-11T03:39:07.642Z,3.58
2022-08-11T03:42:02.490Z,3.70
2022-08-11T03:44:57.724Z,3.03
2022-08-11T03:47:52.658Z,4.28
2022-08-11T03:50:37.667Z,2.67
2022-08-11T03:53:17.574Z,2.53
2022-08-11T03:56:24.348Z,2.53
2022-08-11T03:59:25.252Z,2.95
2022-08-11T04:02:11.052Z,2.33
2022-08-11T04:05:28.372Z,2.95
2022-08-11T04:08:37.646Z,4.25
2022-08-11T04:12:02.889Z,4.35
2022-08-11T04:15:05.321Z,2.50
2022-08-11T04:17:59.766Z,4.75
2022-08-11T04:20:45.627Z,2.30
2022-08-11T04:24:34.525Z,2.95
2022-08-11T04:26:39.044Z,4.35
2022-08-11T04:29:36.023Z,2.67
2022-08-11T04:32:32.921Z,3.65
2022-08-11T04:35:18.972Z,4.32
2022-08-11T04:38:21.149Z,2.72
2022-08-11T04:41:32.191Z,3.47
2022-08-11T04:44:57.668Z,3.63
2022-08-11T04:48:06.268Z,3.03
2022-08-11T04:54:16.054Z,4.18
2022-08-11T04:57:07.081Z,7.40
2022-08-11T05:00:24.055Z,2.70
2022-08-11T05:03:25.173Z,4.95
2022-08-11T05:06:37.333Z,2.92
2022-08-11T05:09:30.182Z,3.65
2022-08-11T05:12:24.881Z,2.67
2022-08-11T05:15:12.385Z,3.95
2022-08-11T05:20:46.590Z,5.53
2022-08-11T05:23:34.541Z,4.38
2022-08-11T05:26:47.541Z,3.00
2022-08-11T07:26:28.687Z,1.90
2022-08-11T07:28:59.105Z,5.88
2022-08-11T07:31:37.213Z,1.80
2022-08-11T07:34:18.637Z,1.98
2022-08-11T07:36:52.566Z,1.92
2022-08-11T07:39:24.274Z,5.90
2022-08-11T07:41:57.290Z,2.25
2022-08-11T07:44:34.331Z,4.15
2022-08-11T07:47:21.997Z,3.60
2022-08-11T07:50:12.251Z,4.93
2022-08-11T07:52:41.723Z,3.53
2022-08-11T07:55:15.619Z,2.88
2022-08-11T07:58:16.576Z,1.30
2022-08-11T08:01:21.868Z,2.10
2022-08-11T08:04:09.231Z,2.22
2022-08-11T08:06:56.562Z,1.63
2022-08-11T08:09:43.670Z,1.70
2022-08-11T08:15:19.896Z,3.67
2022-08-11T08:18:10.028Z,4.97
2022-08-11T08:20:47.217Z,5.10
2022-08-11T08:23:17.535Z,2.28
2022-08-11T08:25:47.658Z,3.35
2022-08-11T08:28:18.891Z,2.42
2022-08-11T08:30:51.804Z,2.05
2022-08-11T08:33:25.909Z,2.03
2022-08-11T08:36:11.919Z,7.43
2022-08-11T08:38:42.675Z,3.00
2022-08-11T08:41:13.219Z,1.75
2022-08-11T08:43:49.616Z,2.50
2022-08-11T08:46:23.591Z,5.88
2022-08-11T08:48:53.587Z,1.60
2022-08-11T08:52:02.576Z,2.03
2022-08-11T08:54:35.645Z,2.75
2022-08-11T08:57:06.465Z,3.10
2022-08-11T08:59:48.627Z,4.47
2022-08-11T09:02:34.122Z,3.65
2022-08-11T09:05:05.820Z,2.28
2022-08-11T09:07:38.602Z,2.53
2022-08-11T09:10:11.346Z,1.67
2022-08-11T09:12:43.585Z,3.40
2022-08-11T09:15:15.060Z,3.50
2022-08-11T09:17:47.893Z,1.48
2022-08-11T09:20:20.881Z,2.00
2022-08-11T09:26:17.027Z,2.00
2022-08-11T09:28:46.514Z,5.60
2022-08-11T09:31:16.229Z,2.03
2022-08-11T09:33:47.137Z,2.72
2022-08-11T09:36:33.138Z,2.92
2022-08-11T09:39:19.742Z,1.63
2022-08-11T09:42:00.969Z,2.90
2022-08-11T09:44:50.674Z,3.97
2022-08-11T09:47:24.623Z,1.75
2022-08-11T09:50:00.593Z,3.13
2022-08-11T09:52:32.743Z,2.35
2022-08-11T09:55:02.574Z,2.30
2022-08-11T09:57:48.613Z,2.72
2022-08-11T10:00:18.249Z,1.75
2022-08-11T10:02:50.021Z,3.17
2022-08-11T10:05:39.253Z,2.78
2022-08-11T10:08:10.657Z,2.15
2022-08-11T10:10:40.772Z,4.82
2022-08-11T10:14:30.572Z,2.25
2022-08-11T10:16:15.363Z,2.45
2022-08-11T10:18:52.993Z,1.92
2022-08-11T10:21:31.650Z,2.35
2022-08-11T10:24:19.518Z,2.38
2022-08-11T10:26:58.915Z,1.50
2022-08-11T10:29:51.205Z,2.78
2022-08-11T10:32:52.790Z,3.58
2022-08-11T10:35:29.519Z,2.60
2022-08-11T10:38:08.431Z,1.60
2022-08-11T10:40:41.042Z,8.73
2022-08-11T10:43:14.326Z,2.92
2022-08-11T10:46:25.737Z,1.40
2022-08-11T10:51:50.641Z,3.00
2022-08-11T10:54:41.709Z,1.40
2022-08-11T10:57:29.320Z,1.90
2022-08-11T10:59:58.779Z,2.33
2022-08-11T11:02:28.484Z,1.70
2022-08-11T11:05:04.292Z,1.90
2022-08-11T11:07:41.514Z,1.70
2022-08-11T11:10:14.230Z,2.65
2022-08-11T11:13:04.295Z,2.88
2022-08-11T11:15:53.623Z,2.13
2022-08-11T11:18:25.234Z,2.63
2022-08-11T11:20:58.660Z,2.47
2022-08-11T11:23:34.953Z,2.40
2022-08-11T11:26:27.189Z,2.78
2022-08-11T11:29:41.908Z,1.83
2022-08-11T11:32:22.561Z,2.40
2022-08-11T11:35:12.550Z,2.10
2022-08-11T11:37:56.200Z,5.00
2022-08-11T11:40:32.356Z,3.30
2022-08-11T11:43:02.989Z,2.53
2022-08-11T11:45:32.041Z,2.70
2022-08-11T11:48:02.275Z,1.92
2022-08-11T11:50:34.607Z,2.05
2022-08-11T11:53:06.098Z,2.63
2022-08-11T11:55:35.300Z,2.72
2022-08-11T11:58:23.805Z,2.25
2022-08-11T12:01:12.107Z,2.08
2022-08-11T12:03:41.909Z,1.90
2022-08-11T12:06:14.503Z,2.25
2022-08-11T12:08:44.424Z,2.20
2022-08-11T12:11:31.891Z,3.55
2022-08-11T12:14:10.211Z,2.63
2022-08-11T12:16:41.448Z,2.15
2022-08-11T12:19:14.206Z,3.25
2022-08-11T12:22:05.251Z,2.05
2022-08-11T12:24:53.570Z,3.47
2022-08-11T12:27:25.306Z,1.80
2022-08-11T12:30:00.751Z,2.42
2022-08-11T12:32:33.943Z,3.13
2022-08-11T12:35:03.335Z,2.10
2022-08-11T12:37:35.160Z,2.42
2022-08-11T12:40:43.711Z,3.05
2022-08-11T12:43:37.918Z,7.82
2022-08-11T12:46:11.855Z,3.40
2022-08-11T12:49:04.233Z,3.15
2022-08-11T12:52:13.649Z,3.25
2022-08-11T12:55:00.620Z,3.45
2022-08-11T12:57:52.170Z,2.47
2022-08-11T13:00:39.441Z,2.63
2022-08-11T13:03:29.260Z,2.25
2022-08-11T13:05:59.823Z,3.33
2022-08-11T13:08:30.781Z,2.65
2022-08-11T13:11:19.017Z,4.32
2022-08-11T13:13:55.553Z,2.53
2022-08-11T13:16:30.545Z,1.75
2022-08-11T13:19:01.924Z,4.47
2022-08-11T13:21:31.390Z,3.08
2022-08-11T13:24:03.159Z,2.67
2022-08-11T13:26:48.762Z,2.25
2022-08-11T13:29:23.788Z,4.25
2022-08-11T13:31:54.641Z,2.70
2022-08-11T13:34:27.508Z,1.75
2022-08-11T13:36:58.365Z,2.88
2022-08-11T13:39:28.714Z,3.92
2022-08-11T13:41:59.547Z,3.08
2022-08-11T13:44:31.230Z,2.75
2022-08-11T13:47:02.627Z,3.35
2022-08-11T13:49:33.917Z,1.85
2022-08-11T13:52:03.589Z,2.20
2022-08-11T13:54:36.357Z,4.50
2022-08-11T13:57:13.558Z,4.85
2022-08-11T14:00:13.188Z,2.70
2022-08-11T14:02:57.238Z,2.95
2022-08-11T14:05:30.635Z,3.40
2022-08-11T14:08:03.310Z,4.55
2022-08-11T14:10:34.307Z,2.17
2022-08-11T14:13:25.739Z,3.95
2022-08-11T14:15:55.194Z,5.63
2022-08-11T14:18:27.292Z,3.33
2022-08-11T14:21:17.570Z,1.70
2022-08-11T14:23:49.491Z,2.10
2022-08-11T14:26:27.890Z,2.17
2022-08-11T14:28:59.277Z,2.08
2022-08-11T14:31:30.451Z,1.50
2022-08-11T14:34:03.624Z,2.85
2022-08-11T14:36:37.216Z,4.03
2022-08-11T14:39:13.056Z,3.92
2022-08-11T14:42:11.672Z,3.88
2022-08-11T14:45:16.706Z,2.95
2022-08-11T14:47:48.902Z,2.00
2022-08-11T14:50:23.274Z,1.90
2022-08-11T14:52:56.737Z,4.22
2022-08-11T14:55:44.515Z,2.80
2022-08-11T14:58:16.457Z,2.38
2022-08-11T15:00:45.659Z,2.60
2022-08-11T15:03:14.715Z,3.38
2022-08-11T15:05:57.262Z,3.65
2022-08-11T15:08:48.595Z,2.53
2022-08-11T15:11:36.818Z,3.75
2022-08-11T15:14:07.972Z,2.47
2022-08-11T15:16:56.154Z,2.53
2022-08-11T15:19:40.569Z,2.97
2022-08-11T15:22:28.941Z,3.67
2022-08-11T15:25:00.772Z,3.60
2022-08-11T15:27:49.457Z,4.28
2022-08-11T15:30:36.138Z,2.05
2022-08-11T15:33:25.847Z,2.47
2022-08-11T15:36:27.911Z,2.60
2022-08-11T15:39:05.212Z,4.07
2022-08-11T15:41:58.902Z,3.92
2022-08-11T15:45:02.070Z,4.88
2022-08-11T15:47:41.479Z,3.28
2022-08-11T15:50:15.460Z,4.95
2022-08-11T15:52:49.638Z,3.53
2022-08-11T15:55:18.745Z,2.85
2022-08-11T15:58:08.724Z,3.85
2022-08-11T16:00:56.894Z,3.35
2022-08-11T16:04:07.965Z,2.78
2022-08-11T16:06:42.800Z,2.88
2022-08-11T16:09:19.172Z,2.97
2022-08-11T16:11:49.690Z,5.10
2022-08-11T16:14:38.319Z,2.88
2022-08-11T16:17:09.367Z,3.17
2022-08-11T16:19:39.833Z,2.45
2022-08-11T16:22:13.524Z,4.65
2022-08-11T16:27:03.732Z,3.78
2022-08-11T16:27:38.607Z,4.55
2022-08-11T16:30:10.444Z,2.33
2022-08-11T16:32:43.178Z,2.50
2022-08-11T16:35:32.217Z,3.40
2022-08-11T16:38:18.928Z,4.47
2022-08-11T16:40:49.108Z,4.07
2022-08-11T16:43:37.622Z,3.42
2022-08-11T16:46:26.635Z,3.72
2022-08-11T16:48:56.763Z,6.43
2022-08-11T16:51:25.391Z,3.88
2022-08-11T16:54:05.305Z,4.28
2022-08-11T16:56:38.801Z,4.90
2022-08-11T16:59:17.353Z,4.68
2022-08-11T17:02:00.623Z,3.40
2022-08-11T17:04:53.616Z,3.22
2022-08-11T17:07:43.246Z,4.20
2022-08-11T17:10:53.502Z,5.80
2022-08-11T17:13:30.443Z,4.35
2022-08-11T17:16:12.084Z,9.00
2022-08-11T17:18:58.502Z,8.73
2022-08-11T17:21:29.983Z,8.73
2022-08-11T17:24:06.420Z,13.00
2022-08-11T17:26:57.141Z,13.65
2022-08-11T17:29:30.017Z,15.73
2022-08-11T17:32:18.181Z,15.35
2022-08-11T17:35:07.330Z,13.48
2022-08-11T17:37:37.889Z,15.25
2022-08-11T17:40:12.448Z,19.17
2022-08-11T17:43:11.965Z,17.95
2022-08-11T17:45:56.639Z,19.83
2022-08-11T17:48:27.925Z,16.27
2022-08-11T17:51:00.537Z,19.00
2022-08-11T17:54:02.247Z,18.63
2022-08-11T17:57:08.237Z,14.65
2022-08-11T17:59:53.529Z,14.15
2022-08-11T18:02:43.983Z,11.30
2022-08-11T18:05:14.115Z,7.90
2022-08-11T18:08:03.895Z,7.78
2022-08-11T18:10:52.229Z,9.15
2022-08-11T18:13:41.861Z,11.85
2022-08-11T18:16:28.416Z,10.77
2022-08-11T18:19:14.477Z,13.20
2022-08-11T18:22:14.812Z,17.65
2022-08-11T18:25:07.574Z,17.38
2022-08-11T18:27:54.752Z,22.10
2022-08-11T18:30:42.915Z,21.40
2022-08-11T18:36:41.399Z,21.27
2022-08-11T18:39:31.046Z,20.33
2022-08-11T18:42:29.085Z,22.30
2022-08-11T18:45:19.203Z,20.13
2022-08-11T18:48:11.332Z,26.52
2022-08-11T18:51:29.845Z,16.30
2022-08-11T18:54:09.528Z,16.73
2022-08-11T18:56:55.513Z,12.13
2022-08-11T18:59:45.988Z,18.92
2022-08-11T19:02:48.269Z,15.23
2022-08-11T19:06:32.174Z,15.48
2022-08-11T19:08:53.669Z,16.60
2022-08-11T19:11:42.692Z,18.67
2022-08-11T19:14:31.558Z,10.23
2022-08-11T19:17:44.398Z,12.35
2022-08-11T19:20:30.305Z,11.98
2022-08-11T19:23:16.887Z,8.45
2022-08-11T19:26:03.963Z,12.35
2022-08-11T19:28:52.586Z,9.05
2022-08-11T19:31:44.025Z,10.45
2022-08-11T19:34:33.588Z,11.20
2022-08-11T19:37:24.043Z,11.27
2022-08-11T19:40:11.763Z,5.47
2022-08-11T19:45:44.836Z,5.55
2022-08-11T19:48:40.110Z,6.93
2022-08-11T19:51:28.747Z,6.57
2022-08-11T19:54:16.270Z,5.28
2022-08-11T19:57:03.951Z,7.05
2022-08-11T19:59:51.208Z,5.18
2022-08-11T20:05:23.419Z,6.40
2022-08-11T20:08:12.582Z,7.38
2022-08-11T20:10:59.796Z,9.95
2022-08-11T20:16:37.131Z,8.13
2022-08-11T20:19:26.177Z,5.35
2022-08-11T20:22:31.088Z,7.05
2022-08-11T20:25:18.871Z,8.32
2022-08-11T20:28:07.003Z,10.25
2022-08-11T20:30:54.256Z,7.00
2022-08-11T20:33:41.580Z,6.80
2022-08-11T20:36:29.260Z,7.53
2022-08-11T20:39:17.241Z,6.97
2022-08-11T20:42:06.402Z,6.43
2022-08-11T20:44:55.952Z,5.13
2022-08-11T20:47:58.985Z,7.82
2022-08-11T20:50:46.487Z,8.52
2022-08-11T20:53:36.014Z,6.47
2022-08-11T20:56:28.771Z,9.25
2022-08-11T20:59:21.617Z,8.35
2022-08-11T21:02:10.542Z,7.47
2022-08-11T21:05:00.028Z,9.60
2022-08-11T21:07:57.080Z,7.65
2022-08-11T21:10:50.543Z,8.13
2022-08-11T21:13:42.091Z,5.30
2022-08-11T21:16:33.917Z,6.97
2022-08-11T21:20:01.417Z,8.13
2022-08-11T21:22:37.428Z,7.72
2022-08-11T21:25:26.126Z,6.90
2022-08-11T21:28:15.621Z,6.72
2022-08-11T21:31:02.114Z,10.10
2022-08-11T21:33:50.524Z,7.70
2022-08-11T21:36:38.687Z,6.70
2022-08-11T21:39:26.544Z,10.25
2022-08-11T21:42:13.719Z,9.48
2022-08-11T21:45:01.412Z,5.60
2022-08-11T21:48:00.790Z,6.95
2022-08-11T21:50:48.967Z,7.55
2022-08-11T21:56:22.058Z,11.68
2022-08-11T21:59:13.220Z,9.48
2022-08-11T22:01:59.496Z,6.45
2022-08-11T22:04:46.107Z,7.82
2022-08-11T22:07:40.896Z,6.93
2022-08-11T22:10:42.238Z,7.57
2022-08-11T22:13:30.322Z,5.82
2022-08-11T22:19:03.044Z,8.02
2022-08-11T22:22:01.486Z,6.68
2022-08-11T22:24:52.929Z,9.40
2022-08-11T22:27:39.509Z,7.53
2022-08-11T22:30:26.947Z,8.57
2022-08-11T22:33:15.162Z,7.15
2022-08-11T22:36:03.227Z,10.25
2022-08-11T22:38:51.207Z,9.05
2022-08-11T22:41:39.552Z,6.75
2022-08-11T22:44:26.145Z,10.13
2022-08-11T22:47:15.493Z,7.55
2022-08-11T22:50:11.731Z,7.93
2022-08-11T22:52:59.921Z,10.88
2022-08-11T22:55:46.428Z,8.15
2022-08-11T22:58:34.746Z,6.95
2022-08-11T23:01:21.449Z,13.07
2022-08-11T23:04:08.045Z,6.25
2022-08-11T23:06:54.168Z,8.73
2022-08-11T23:09:42.793Z,9.75
2022-08-11T23:12:29.009Z,8.18
2022-08-11T23:15:16.888Z,9.75
2022-08-11T23:18:03.644Z,10.98
2022-08-11T23:20:50.313Z,7.13
2022-08-11T23:23:38.505Z,7.18
2022-08-11T23:26:24.684Z,10.00
2022-08-11T23:29:12.869Z,9.88
2022-08-11T23:32:01.119Z,12.43
2022-08-11T23:35:36.964Z,9.45
2022-08-11T23:38:00.037Z,10.25
2022-08-11T23:40:45.930Z,7.30
2022-08-11T23:43:39.030Z,12.00
2022-08-11T23:46:25.415Z,6.97
2022-08-11T23:49:16.139Z,11.00
2022-08-11T23:52:04.012Z,8.85
2022-08-11T23:54:52.112Z,10.40
2022-08-11T23:57:38.690Z,5.93
